sensor_id;sensor_type;location;lat;lon;timestamp;P1;durP1;ratioP1;P2;durP2;ratioP2
76826;SDS011;65788;52.284;20.890;2023-03-11T00:00:29;12.20;;;8.00;;
76826;SDS011;65788;52.284;20.890;2023-03-11T00:03:17;12.20;;;7.70;;
76826;SDS011;65788;52.284;20.890;2023-03-11T00:05:45;10.00;;;7.70;;
76826;SDS011;65788;52.284;20.890;2023-03-11T00:08:14;11.80;;;7.80;;
76826;SDS011;65788;52.284;20.890;2023-03-11T00:10:44;10.60;;;7.60;;
76826;SDS011;65788;52.284;20.890;2023-03-11T00:13:14;10.90;;;8.20;;
76826;SDS011;65788;52.284;20.890;2023-03-11T00:15:45;12.10;;;8.10;;
76826;SDS011;65788;52.284;20.890;2023-03-11T00:18:14;11.80;;;8.10;;
76826;SDS011;65788;52.284;20.890;2023-03-11T00:20:42;10.80;;;7.90;;
76826;SDS011;65788;52.284;20.890;2023-03-11T00:25:39;13.10;;;8.30;;
76826;SDS011;65788;52.284;20.890;2023-03-11T00:28:08;12.90;;;8.50;;
76826;SDS011;65788;52.284;20.890;2023-03-11T00:30:40;11.80;;;8.20;;
76826;SDS011;65788;52.284;20.890;2023-03-11T00:33:09;12.40;;;8.50;;
76826;SDS011;65788;52.284;20.890;2023-03-11T00:35:37;11.40;;;8.20;;
76826;SDS011;65788;52.284;20.890;2023-03-11T00:38:06;11.90;;;8.30;;
76826;SDS011;65788;52.284;20.890;2023-03-11T00:40:34;12.00;;;8.00;;
76826;SDS011;65788;52.284;20.890;2023-03-11T00:43:06;11.80;;;8.20;;
76826;SDS011;65788;52.284;20.890;2023-03-11T00:45:33;11.30;;;7.60;;
76826;SDS011;65788;52.284;20.890;2023-03-11T00:48:00;12.60;;;8.60;;
76826;SDS011;65788;52.284;20.890;2023-03-11T00:50:29;12.10;;;8.10;;
76826;SDS011;65788;52.284;20.890;2023-03-11T00:52:57;12.90;;;8.70;;
76826;SDS011;65788;52.284;20.890;2023-03-11T00:55:25;13.00;;;9.00;;
76826;SDS011;65788;52.284;20.890;2023-03-11T00:57:56;12.60;;;8.40;;
76826;SDS011;65788;52.284;20.890;2023-03-11T01:00:26;11.60;;;8.10;;
76826;SDS011;65788;52.284;20.890;2023-03-11T01:02:56;13.30;;;8.60;;
76826;SDS011;65788;52.284;20.890;2023-03-11T01:05:26;12.70;;;9.10;;
76826;SDS011;65788;52.284;20.890;2023-03-11T01:07:56;12.40;;;8.40;;
76826;SDS011;65788;52.284;20.890;2023-03-11T01:10:23;11.30;;;8.20;;
76826;SDS011;65788;52.284;20.890;2023-03-11T01:12:50;11.40;;;8.10;;
76826;SDS011;65788;52.284;20.890;2023-03-11T01:15:29;11.20;;;7.90;;
76826;SDS011;65788;52.284;20.890;2023-03-11T01:17:58;15.70;;;8.50;;
76826;SDS011;65788;52.284;20.890;2023-03-11T01:20:25;11.90;;;7.60;;
76826;SDS011;65788;52.284;20.890;2023-03-11T01:22:52;12.70;;;8.90;;
76826;SDS011;65788;52.284;20.890;2023-03-11T01:25:20;11.30;;;7.70;;
76826;SDS011;65788;52.284;20.890;2023-03-11T01:27:48;11.10;;;8.20;;
76826;SDS011;65788;52.284;20.890;2023-03-11T01:30:18;10.70;;;7.90;;
76826;SDS011;65788;52.284;20.890;2023-03-11T01:32:51;13.30;;;8.00;;
76826;SDS011;65788;52.284;20.890;2023-03-11T01:35:19;14.70;;;8.00;;
76826;SDS011;65788;52.284;20.890;2023-03-11T01:37:47;13.50;;;8.10;;
76826;SDS011;65788;52.284;20.890;2023-03-11T01:40:16;10.80;;;7.90;;
76826;SDS011;65788;52.284;20.890;2023-03-11T01:42:46;12.00;;;8.20;;
76826;SDS011;65788;52.284;20.890;2023-03-11T01:50:31;12.60;;;8.50;;
76826;SDS011;65788;52.284;20.890;2023-03-11T01:53:06;13.40;;;7.20;;
76826;SDS011;65788;52.284;20.890;2023-03-11T01:55:35;12.00;;;8.20;;
76826;SDS011;65788;52.284;20.890;2023-03-11T01:58:03;11.80;;;8.10;;
76826;SDS011;65788;52.284;20.890;2023-03-11T02:00:34;10.30;;;7.70;;
76826;SDS011;65788;52.284;20.890;2023-03-11T02:05:36;12.10;;;7.80;;
76826;SDS011;65788;52.284;20.890;2023-03-11T02:10:32;11.10;;;8.20;;
76826;SDS011;65788;52.284;20.890;2023-03-11T02:12:59;12.90;;;8.30;;
76826;SDS011;65788;52.284;20.890;2023-03-11T02:15:28;13.30;;;7.80;;
76826;SDS011;65788;52.284;20.890;2023-03-11T02:17:55;10.70;;;7.60;;
76826;SDS011;65788;52.284;20.890;2023-03-11T02:22:55;12.00;;;8.70;;
76826;SDS011;65788;52.284;20.890;2023-03-11T02:27:56;10.50;;;7.80;;
76826;SDS011;65788;52.284;20.890;2023-03-11T02:30:26;13.00;;;8.30;;
76826;SDS011;65788;52.284;20.890;2023-03-11T02:32:54;14.20;;;8.40;;
76826;SDS011;65788;52.284;20.890;2023-03-11T02:35:21;13.20;;;7.90;;
76826;SDS011;65788;52.284;20.890;2023-03-11T02:37:50;13.60;;;9.00;;
76826;SDS011;65788;52.284;20.890;2023-03-11T02:42:55;11.30;;;8.00;;
76826;SDS011;65788;52.284;20.890;2023-03-11T02:45:25;12.00;;;8.00;;
76826;SDS011;65788;52.284;20.890;2023-03-11T02:47:53;18.90;;;8.10;;
76826;SDS011;65788;52.284;20.890;2023-03-11T02:50:22;15.90;;;8.30;;
76826;SDS011;65788;52.284;20.890;2023-03-11T02:52:53;31.60;;;9.00;;
76826;SDS011;65788;52.284;20.890;2023-03-11T02:55:20;11.70;;;7.80;;
76826;SDS011;65788;52.284;20.890;2023-03-11T02:57:47;11.20;;;7.80;;
76826;SDS011;65788;52.284;20.890;2023-03-11T03:00:15;17.20;;;8.30;;
76826;SDS011;65788;52.284;20.890;2023-03-11T03:02:43;12.30;;;7.70;;
76826;SDS011;65788;52.284;20.890;2023-03-11T03:05:11;17.80;;;8.00;;
76826;SDS011;65788;52.284;20.890;2023-03-11T03:07:38;11.70;;;7.80;;
76826;SDS011;65788;52.284;20.890;2023-03-11T03:10:05;15.50;;;7.80;;
76826;SDS011;65788;52.284;20.890;2023-03-11T03:15:00;11.90;;;7.30;;
76826;SDS011;65788;52.284;20.890;2023-03-11T03:17:27;11.00;;;7.50;;
76826;SDS011;65788;52.284;20.890;2023-03-11T03:19:54;10.80;;;7.60;;
76826;SDS011;65788;52.284;20.890;2023-03-11T03:22:21;10.30;;;7.30;;
76826;SDS011;65788;52.284;20.890;2023-03-11T03:24:52;11.70;;;7.40;;
76826;SDS011;65788;52.284;20.890;2023-03-11T03:27:19;11.80;;;7.70;;
76826;SDS011;65788;52.284;20.890;2023-03-11T03:29:46;10.80;;;7.40;;
76826;SDS011;65788;52.284;20.890;2023-03-11T03:32:13;13.80;;;7.40;;
76826;SDS011;65788;52.284;20.890;2023-03-11T03:34:40;12.00;;;7.60;;
76826;SDS011;65788;52.284;20.890;2023-03-11T03:37:09;9.20;;;6.90;;
76826;SDS011;65788;52.284;20.890;2023-03-11T03:39:36;10.10;;;7.60;;
76826;SDS011;65788;52.284;20.890;2023-03-11T03:42:03;11.60;;;6.50;;
76826;SDS011;65788;52.284;20.890;2023-03-11T03:46:59;10.00;;;7.20;;
76826;SDS011;65788;52.284;20.890;2023-03-11T03:49:26;11.80;;;7.40;;
76826;SDS011;65788;52.284;20.890;2023-03-11T03:51:54;8.60;;;6.40;;
76826;SDS011;65788;52.284;20.890;2023-03-11T03:54:21;9.60;;;6.60;;
76826;SDS011;65788;52.284;20.890;2023-03-11T03:56:48;9.10;;;6.30;;
76826;SDS011;65788;52.284;20.890;2023-03-11T03:59:14;10.30;;;6.90;;
76826;SDS011;65788;52.284;20.890;2023-03-11T04:01:41;10.90;;;6.80;;
76826;SDS011;65788;52.284;20.890;2023-03-11T04:04:08;10.50;;;7.10;;
76826;SDS011;65788;52.284;20.890;2023-03-11T04:06:34;9.80;;;6.50;;
76826;SDS011;65788;52.284;20.890;2023-03-11T04:09:01;10.30;;;6.90;;
76826;SDS011;65788;52.284;20.890;2023-03-11T04:11:28;9.90;;;6.80;;
76826;SDS011;65788;52.284;20.890;2023-03-11T04:13:55;12.80;;;6.60;;
76826;SDS011;65788;52.284;20.890;2023-03-11T04:16:22;10.00;;;6.40;;
76826;SDS011;65788;52.284;20.890;2023-03-11T04:18:50;7.50;;;5.50;;
76826;SDS011;65788;52.284;20.890;2023-03-11T04:21:17;9.20;;;6.20;;
76826;SDS011;65788;52.284;20.890;2023-03-11T04:23:44;10.50;;;6.50;;
76826;SDS011;65788;52.284;20.890;2023-03-11T04:26:12;8.70;;;6.30;;
76826;SDS011;65788;52.284;20.890;2023-03-11T04:28:38;9.60;;;5.90;;
76826;SDS011;65788;52.284;20.890;2023-03-11T04:31:05;12.00;;;6.60;;
76826;SDS011;65788;52.284;20.890;2023-03-11T04:33:32;11.80;;;6.20;;
76826;SDS011;65788;52.284;20.890;2023-03-11T04:36:03;10.10;;;6.10;;
76826;SDS011;65788;52.284;20.890;2023-03-11T04:38:31;9.10;;;5.90;;
76826;SDS011;65788;52.284;20.890;2023-03-11T04:41:01;9.60;;;6.00;;
76826;SDS011;65788;52.284;20.890;2023-03-11T04:43:29;10.70;;;6.90;;
76826;SDS011;65788;52.284;20.890;2023-03-11T04:45:58;9.50;;;5.90;;
76826;SDS011;65788;52.284;20.890;2023-03-11T04:48:25;9.30;;;6.10;;
76826;SDS011;65788;52.284;20.890;2023-03-11T04:50:53;8.80;;;5.90;;
76826;SDS011;65788;52.284;20.890;2023-03-11T04:53:23;8.60;;;6.30;;
76826;SDS011;65788;52.284;20.890;2023-03-11T04:55:50;9.70;;;5.70;;
76826;SDS011;65788;52.284;20.890;2023-03-11T04:58:19;10.50;;;5.90;;
76826;SDS011;65788;52.284;20.890;2023-03-11T05:00:46;10.20;;;5.70;;
76826;SDS011;65788;52.284;20.890;2023-03-11T05:03:13;9.70;;;5.70;;
76826;SDS011;65788;52.284;20.890;2023-03-11T05:05:39;9.10;;;5.70;;
76826;SDS011;65788;52.284;20.890;2023-03-11T05:08:06;11.40;;;5.80;;
76826;SDS011;65788;52.284;20.890;2023-03-11T05:10:33;8.90;;;5.40;;
76826;SDS011;65788;52.284;20.890;2023-03-11T05:13:00;8.60;;;5.60;;
76826;SDS011;65788;52.284;20.890;2023-03-11T05:15:27;9.40;;;5.90;;
76826;SDS011;65788;52.284;20.890;2023-03-11T05:17:56;9.10;;;5.90;;
76826;SDS011;65788;52.284;20.890;2023-03-11T05:20:23;10.10;;;5.90;;
76826;SDS011;65788;52.284;20.890;2023-03-11T05:22:51;8.40;;;5.70;;
76826;SDS011;65788;52.284;20.890;2023-03-11T05:25:17;9.40;;;5.70;;
76826;SDS011;65788;52.284;20.890;2023-03-11T05:27:44;10.90;;;6.50;;
76826;SDS011;65788;52.284;20.890;2023-03-11T05:30:11;9.30;;;5.40;;
76826;SDS011;65788;52.284;20.890;2023-03-11T05:32:38;8.10;;;5.60;;
76826;SDS011;65788;52.284;20.890;2023-03-11T05:35:05;8.30;;;5.50;;
76826;SDS011;65788;52.284;20.890;2023-03-11T05:37:33;9.00;;;6.10;;
76826;SDS011;65788;52.284;20.890;2023-03-11T05:40:01;8.70;;;5.50;;
76826;SDS011;65788;52.284;20.890;2023-03-11T05:42:31;8.90;;;5.30;;
76826;SDS011;65788;52.284;20.890;2023-03-11T05:44:59;10.20;;;5.50;;
76826;SDS011;65788;52.284;20.890;2023-03-11T05:47:26;7.40;;;5.00;;
76826;SDS011;65788;52.284;20.890;2023-03-11T05:49:52;8.70;;;5.60;;
76826;SDS011;65788;52.284;20.890;2023-03-11T05:52:19;6.50;;;4.70;;
76826;SDS011;65788;52.284;20.890;2023-03-11T05:54:49;8.70;;;5.30;;
76826;SDS011;65788;52.284;20.890;2023-03-11T05:57:17;9.00;;;5.30;;
76826;SDS011;65788;52.284;20.890;2023-03-11T05:59:44;7.90;;;5.10;;
76826;SDS011;65788;52.284;20.890;2023-03-11T06:02:11;11.70;;;4.80;;
76826;SDS011;65788;52.284;20.890;2023-03-11T06:04:38;7.60;;;4.70;;
76826;SDS011;65788;52.284;20.890;2023-03-11T06:07:04;9.30;;;5.20;;
76826;SDS011;65788;52.284;20.890;2023-03-11T06:09:31;8.30;;;4.60;;
76826;SDS011;65788;52.284;20.890;2023-03-11T06:12:02;6.40;;;4.60;;
76826;SDS011;65788;52.284;20.890;2023-03-11T06:14:30;7.70;;;4.70;;
76826;SDS011;65788;52.284;20.890;2023-03-11T06:16:58;7.30;;;4.60;;
76826;SDS011;65788;52.284;20.890;2023-03-11T06:19:25;7.20;;;4.40;;
76826;SDS011;65788;52.284;20.890;2023-03-11T06:21:52;7.80;;;4.50;;
76826;SDS011;65788;52.284;20.890;2023-03-11T06:24:18;6.80;;;4.30;;
76826;SDS011;65788;52.284;20.890;2023-03-11T06:26:49;8.40;;;4.90;;
76826;SDS011;65788;52.284;20.890;2023-03-11T06:29:17;7.20;;;4.20;;
76826;SDS011;65788;52.284;20.890;2023-03-11T06:31:44;6.70;;;4.50;;
76826;SDS011;65788;52.284;20.890;2023-03-11T06:34:11;7.30;;;4.40;;
76826;SDS011;65788;52.284;20.890;2023-03-11T06:36:38;7.70;;;4.60;;
76826;SDS011;65788;52.284;20.890;2023-03-11T06:39:04;6.10;;;4.30;;
76826;SDS011;65788;52.284;20.890;2023-03-11T06:41:32;6.50;;;4.20;;
76826;SDS011;65788;52.284;20.890;2023-03-11T06:44:00;6.70;;;4.40;;
76826;SDS011;65788;52.284;20.890;2023-03-11T06:46:27;6.70;;;4.60;;
76826;SDS011;65788;52.284;20.890;2023-03-11T06:48:54;6.70;;;4.20;;
76826;SDS011;65788;52.284;20.890;2023-03-11T06:51:21;6.90;;;4.00;;
76826;SDS011;65788;52.284;20.890;2023-03-11T06:53:49;7.40;;;4.60;;
76826;SDS011;65788;52.284;20.890;2023-03-11T06:56:20;7.30;;;3.90;;
76826;SDS011;65788;52.284;20.890;2023-03-11T06:58:47;7.50;;;4.20;;
76826;SDS011;65788;52.284;20.890;2023-03-11T07:01:16;6.40;;;3.90;;
76826;SDS011;65788;52.284;20.890;2023-03-11T07:03:48;6.30;;;4.00;;
76826;SDS011;65788;52.284;20.890;2023-03-11T07:06:21;7.20;;;4.40;;
76826;SDS011;65788;52.284;20.890;2023-03-11T07:08:50;6.70;;;4.20;;
76826;SDS011;65788;52.284;20.890;2023-03-11T07:11:19;6.30;;;4.10;;
76826;SDS011;65788;52.284;20.890;2023-03-11T07:13:48;6.60;;;4.00;;
76826;SDS011;65788;52.284;20.890;2023-03-11T07:16:16;6.00;;;3.90;;
76826;SDS011;65788;52.284;20.890;2023-03-11T07:18:48;5.70;;;3.40;;
76826;SDS011;65788;52.284;20.890;2023-03-11T07:23:44;6.60;;;3.90;;
76826;SDS011;65788;52.284;20.890;2023-03-11T07:26:14;7.40;;;3.90;;
76826;SDS011;65788;52.284;20.890;2023-03-11T07:28:43;6.00;;;3.90;;
76826;SDS011;65788;52.284;20.890;2023-03-11T07:31:11;5.70;;;3.70;;
76826;SDS011;65788;52.284;20.890;2023-03-11T07:33:39;5.80;;;3.70;;
76826;SDS011;65788;52.284;20.890;2023-03-11T07:36:07;5.80;;;3.80;;
76826;SDS011;65788;52.284;20.890;2023-03-11T07:38:37;6.20;;;3.50;;
76826;SDS011;65788;52.284;20.890;2023-03-11T07:41:05;6.60;;;3.80;;
76826;SDS011;65788;52.284;20.890;2023-03-11T07:43:32;6.30;;;3.60;;
76826;SDS011;65788;52.284;20.890;2023-03-11T07:46:07;5.50;;;3.30;;
76826;SDS011;65788;52.284;20.890;2023-03-11T07:48:44;9.30;;;3.80;;
76826;SDS011;65788;52.284;20.890;2023-03-11T07:51:23;6.60;;;3.30;;
76826;SDS011;65788;52.284;20.890;2023-03-11T07:53:53;6.60;;;3.70;;
76826;SDS011;65788;52.284;20.890;2023-03-11T07:56:22;5.70;;;3.70;;
76826;SDS011;65788;52.284;20.890;2023-03-11T07:58:51;5.00;;;3.00;;
76826;SDS011;65788;52.284;20.890;2023-03-11T08:01:19;6.50;;;3.60;;
76826;SDS011;65788;52.284;20.890;2023-03-11T08:03:48;5.40;;;3.30;;
76826;SDS011;65788;52.284;20.890;2023-03-11T08:06:19;5.60;;;3.50;;
76826;SDS011;65788;52.284;20.890;2023-03-11T08:08:48;7.30;;;3.60;;
76826;SDS011;65788;52.284;20.890;2023-03-11T08:11:17;5.20;;;3.50;;
76826;SDS011;65788;52.284;20.890;2023-03-11T08:13:46;5.70;;;3.40;;
76826;SDS011;65788;52.284;20.890;2023-03-11T08:16:14;5.80;;;3.60;;
76826;SDS011;65788;52.284;20.890;2023-03-11T08:18:42;5.90;;;3.50;;
76826;SDS011;65788;52.284;20.890;2023-03-11T08:21:13;6.40;;;3.60;;
76826;SDS011;65788;52.284;20.890;2023-03-11T08:23:42;5.80;;;3.70;;
76826;SDS011;65788;52.284;20.890;2023-03-11T08:26:12;8.10;;;3.50;;
76826;SDS011;65788;52.284;20.890;2023-03-11T08:28:48;6.80;;;3.50;;
76826;SDS011;65788;52.284;20.890;2023-03-11T08:31:20;5.70;;;3.20;;
76826;SDS011;65788;52.284;20.890;2023-03-11T08:33:50;5.70;;;3.50;;
76826;SDS011;65788;52.284;20.890;2023-03-11T08:36:19;7.60;;;3.40;;
76826;SDS011;65788;52.284;20.890;2023-03-11T08:38:46;6.70;;;3.40;;
76826;SDS011;65788;52.284;20.890;2023-03-11T08:41:13;6.50;;;3.50;;
76826;SDS011;65788;52.284;20.890;2023-03-11T08:43:41;5.60;;;3.10;;
76826;SDS011;65788;52.284;20.890;2023-03-11T08:46:13;5.90;;;3.60;;
76826;SDS011;65788;52.284;20.890;2023-03-11T08:48:51;6.40;;;3.30;;
76826;SDS011;65788;52.284;20.890;2023-03-11T08:51:18;5.70;;;3.30;;
76826;SDS011;65788;52.284;20.890;2023-03-11T08:53:47;6.60;;;3.30;;
76826;SDS011;65788;52.284;20.890;2023-03-11T08:56:14;6.40;;;3.30;;
76826;SDS011;65788;52.284;20.890;2023-03-11T08:58:41;4.50;;;2.60;;
76826;SDS011;65788;52.284;20.890;2023-03-11T09:01:11;6.60;;;3.10;;
76826;SDS011;65788;52.284;20.890;2023-03-11T09:03:38;6.80;;;3.20;;
76826;SDS011;65788;52.284;20.890;2023-03-11T09:06:07;6.40;;;3.30;;
76826;SDS011;65788;52.284;20.890;2023-03-11T09:08:37;4.50;;;3.10;;
76826;SDS011;65788;52.284;20.890;2023-03-11T09:11:03;6.30;;;3.70;;
76826;SDS011;65788;52.284;20.890;2023-03-11T09:13:31;5.60;;;3.50;;
76826;SDS011;65788;52.284;20.890;2023-03-11T09:15:58;6.80;;;4.10;;
76826;SDS011;65788;52.284;20.890;2023-03-11T09:18:25;6.50;;;3.50;;
76826;SDS011;65788;52.284;20.890;2023-03-11T09:20:53;7.30;;;3.10;;
76826;SDS011;65788;52.284;20.890;2023-03-11T09:23:23;5.80;;;3.60;;
76826;SDS011;65788;52.284;20.890;2023-03-11T09:25:51;5.00;;;3.40;;
76826;SDS011;65788;52.284;20.890;2023-03-11T09:28:17;5.60;;;3.80;;
76826;SDS011;65788;52.284;20.890;2023-03-11T09:30:44;5.80;;;3.60;;
76826;SDS011;65788;52.284;20.890;2023-03-11T09:33:11;7.30;;;4.20;;
76826;SDS011;65788;52.284;20.890;2023-03-11T09:35:38;6.00;;;4.20;;
76826;SDS011;65788;52.284;20.890;2023-03-11T09:38:05;7.00;;;4.30;;
76826;SDS011;65788;52.284;20.890;2023-03-11T09:46:15;6.80;;;4.80;;
76826;SDS011;65788;52.284;20.890;2023-03-11T09:52:08;7.30;;;5.10;;
76826;SDS011;65788;52.284;20.890;2023-03-11T09:54:39;6.90;;;4.80;;
76826;SDS011;65788;52.284;20.890;2023-03-11T09:57:23;8.10;;;5.90;;
76826;SDS011;65788;52.284;20.890;2023-03-11T09:59:56;8.10;;;5.90;;
76826;SDS011;65788;52.284;20.890;2023-03-11T10:04:57;8.40;;;5.70;;
76826;SDS011;65788;52.284;20.890;2023-03-11T10:07:42;10.50;;;5.60;;
76826;SDS011;65788;52.284;20.890;2023-03-11T10:10:13;6.40;;;4.90;;
76826;SDS011;65788;52.284;20.890;2023-03-11T10:12:47;8.20;;;5.30;;
76826;SDS011;65788;52.284;20.890;2023-03-11T10:29:25;6.90;;;4.70;;
76826;SDS011;65788;52.284;20.890;2023-03-11T10:34:44;5.40;;;4.50;;
76826;SDS011;65788;52.284;20.890;2023-03-11T10:37:24;5.90;;;4.30;;
76826;SDS011;65788;52.284;20.890;2023-03-11T10:39:54;7.10;;;5.00;;
76826;SDS011;65788;52.284;20.890;2023-03-11T10:42:33;5.90;;;4.20;;
76826;SDS011;65788;52.284;20.890;2023-03-11T10:45:04;5.80;;;4.20;;
76826;SDS011;65788;52.284;20.890;2023-03-11T10:47:40;6.90;;;4.30;;
76826;SDS011;65788;52.284;20.890;2023-03-11T10:50:13;5.60;;;3.90;;
76826;SDS011;65788;52.284;20.890;2023-03-11T10:52:45;6.30;;;4.30;;
76826;SDS011;65788;52.284;20.890;2023-03-11T10:55:31;6.00;;;3.50;;
76826;SDS011;65788;52.284;20.890;2023-03-11T10:58:11;4.10;;;3.10;;
76826;SDS011;65788;52.284;20.890;2023-03-11T11:00:39;5.70;;;3.60;;
76826;SDS011;65788;52.284;20.890;2023-03-11T11:03:17;5.00;;;3.50;;
76826;SDS011;65788;52.284;20.890;2023-03-11T11:05:55;5.50;;;3.90;;
76826;SDS011;65788;52.284;20.890;2023-03-11T11:08:24;8.30;;;4.20;;
76826;SDS011;65788;52.284;20.890;2023-03-11T11:10:55;4.80;;;3.60;;
76826;SDS011;65788;52.284;20.890;2023-03-11T11:13:24;4.70;;;3.40;;
76826;SDS011;65788;52.284;20.890;2023-03-11T11:16:17;5.00;;;3.00;;
76826;SDS011;65788;52.284;20.890;2023-03-11T11:18:49;4.90;;;3.20;;
76826;SDS011;65788;52.284;20.890;2023-03-11T11:21:37;5.90;;;3.40;;
76826;SDS011;65788;52.284;20.890;2023-03-11T11:32:34;7.00;;;3.30;;
76826;SDS011;65788;52.284;20.890;2023-03-11T11:37:34;4.50;;;3.00;;
76826;SDS011;65788;52.284;20.890;2023-03-11T11:42:42;5.70;;;2.70;;
76826;SDS011;65788;52.284;20.890;2023-03-11T11:45:14;4.30;;;2.80;;
76826;SDS011;65788;52.284;20.890;2023-03-11T11:47:51;7.30;;;2.80;;
76826;SDS011;65788;52.284;20.890;2023-03-11T11:50:34;5.10;;;2.90;;
76826;SDS011;65788;52.284;20.890;2023-03-11T11:55:46;3.90;;;2.50;;
76826;SDS011;65788;52.284;20.890;2023-03-11T11:58:15;5.20;;;2.60;;
76826;SDS011;65788;52.284;20.890;2023-03-11T12:00:44;4.50;;;3.00;;
76826;SDS011;65788;52.284;20.890;2023-03-11T12:03:33;25.60;;;5.50;;
76826;SDS011;65788;52.284;20.890;2023-03-11T12:06:18;6.90;;;2.70;;
76826;SDS011;65788;52.284;20.890;2023-03-11T12:11:33;23.70;;;4.60;;
76826;SDS011;65788;52.284;20.890;2023-03-11T12:14:48;14.20;;;2.80;;
76826;SDS011;65788;52.284;20.890;2023-03-11T12:17:16;5.40;;;2.40;;
76826;SDS011;65788;52.284;20.890;2023-03-11T12:19:53;7.40;;;2.40;;
76826;SDS011;65788;52.284;20.890;2023-03-11T12:27:57;8.10;;;2.60;;
76826;SDS011;65788;52.284;20.890;2023-03-11T12:30:29;16.80;;;3.20;;
76826;SDS011;65788;52.284;20.890;2023-03-11T12:33:03;128.40;;;14.80;;
76826;SDS011;65788;52.284;20.890;2023-03-11T12:35:34;78.50;;;10.60;;
76826;SDS011;65788;52.284;20.890;2023-03-11T12:38:13;38.00;;;5.90;;
76826;SDS011;65788;52.284;20.890;2023-03-11T12:46:05;34.70;;;6.00;;
76826;SDS011;65788;52.284;20.890;2023-03-11T12:54:19;29.60;;;4.80;;
76826;SDS011;65788;52.284;20.890;2023-03-11T12:56:58;21.20;;;4.70;;
76826;SDS011;65788;52.284;20.890;2023-03-11T13:08:14;14.40;;;3.60;;
76826;SDS011;65788;52.284;20.890;2023-03-11T13:10:46;9.60;;;3.70;;
76826;SDS011;65788;52.284;20.890;2023-03-11T13:18:40;14.40;;;3.50;;
76826;SDS011;65788;52.284;20.890;2023-03-11T13:40:42;7.10;;;2.70;;
76826;SDS011;65788;52.284;20.890;2023-03-11T13:43:13;5.30;;;2.70;;
76826;SDS011;65788;52.284;20.890;2023-03-11T13:45:54;7.20;;;2.80;;
76826;SDS011;65788;52.284;20.890;2023-03-11T13:48:35;6.10;;;3.00;;
76826;SDS011;65788;52.284;20.890;2023-03-11T13:51:19;4.80;;;3.00;;
76826;SDS011;65788;52.284;20.890;2023-03-11T13:53:55;6.20;;;2.70;;
76826;SDS011;65788;52.284;20.890;2023-03-11T13:56:26;6.20;;;2.70;;
76826;SDS011;65788;52.284;20.890;2023-03-11T14:01:51;5.10;;;2.70;;
76826;SDS011;65788;52.284;20.890;2023-03-11T14:04:24;4.40;;;2.60;;
76826;SDS011;65788;52.284;20.890;2023-03-11T14:06:53;8.40;;;3.00;;
76826;SDS011;65788;52.284;20.890;2023-03-11T14:09:21;5.40;;;2.60;;
76826;SDS011;65788;52.284;20.890;2023-03-11T14:11:51;6.70;;;3.20;;
76826;SDS011;65788;52.284;20.890;2023-03-11T14:14:31;4.40;;;2.80;;
76826;SDS011;65788;52.284;20.890;2023-03-11T14:17:09;5.50;;;2.90;;
76826;SDS011;65788;52.284;20.890;2023-03-11T14:19:41;5.80;;;2.70;;
76826;SDS011;65788;52.284;20.890;2023-03-11T14:22:09;9.50;;;2.70;;
76826;SDS011;65788;52.284;20.890;2023-03-11T14:24:36;7.80;;;2.70;;
76826;SDS011;65788;52.284;20.890;2023-03-11T14:27:07;5.30;;;3.10;;
76826;SDS011;65788;52.284;20.890;2023-03-11T14:29:39;6.60;;;3.00;;
76826;SDS011;65788;52.284;20.890;2023-03-11T14:32:26;8.80;;;2.90;;
76826;SDS011;65788;52.284;20.890;2023-03-11T14:37:32;8.30;;;3.80;;
76826;SDS011;65788;52.284;20.890;2023-03-11T14:40:00;5.60;;;2.70;;
76826;SDS011;65788;52.284;20.890;2023-03-11T14:42:33;5.80;;;2.60;;
76826;SDS011;65788;52.284;20.890;2023-03-11T14:45:08;6.40;;;2.90;;
76826;SDS011;65788;52.284;20.890;2023-03-11T14:47:37;5.30;;;2.90;;
76826;SDS011;65788;52.284;20.890;2023-03-11T14:50:10;8.70;;;3.50;;
76826;SDS011;65788;52.284;20.890;2023-03-11T14:52:42;5.30;;;2.60;;
76826;SDS011;65788;52.284;20.890;2023-03-11T14:55:15;4.80;;;3.00;;
76826;SDS011;65788;52.284;20.890;2023-03-11T14:57:49;5.40;;;2.60;;
76826;SDS011;65788;52.284;20.890;2023-03-11T15:00:21;4.50;;;2.80;;
76826;SDS011;65788;52.284;20.890;2023-03-11T15:02:58;6.50;;;2.90;;
76826;SDS011;65788;52.284;20.890;2023-03-11T15:08:36;6.00;;;2.80;;
76826;SDS011;65788;52.284;20.890;2023-03-11T15:13:42;5.40;;;3.00;;
76826;SDS011;65788;52.284;20.890;2023-03-11T15:16:23;5.00;;;2.80;;
76826;SDS011;65788;52.284;20.890;2023-03-11T15:18:58;4.40;;;2.70;;
76826;SDS011;65788;52.284;20.890;2023-03-11T15:21:48;8.80;;;3.40;;
76826;SDS011;65788;52.284;20.890;2023-03-11T15:24:20;6.00;;;2.80;;
76826;SDS011;65788;52.284;20.890;2023-03-11T15:27:04;7.30;;;3.40;;
76826;SDS011;65788;52.284;20.890;2023-03-11T15:29:51;5.10;;;2.90;;
76826;SDS011;65788;52.284;20.890;2023-03-11T15:32:32;4.20;;;2.70;;
76826;SDS011;65788;52.284;20.890;2023-03-11T15:37:33;5.60;;;3.00;;
76826;SDS011;65788;52.284;20.890;2023-03-11T15:40:18;5.50;;;2.60;;
76826;SDS011;65788;52.284;20.890;2023-03-11T15:43:40;6.20;;;2.40;;
76826;SDS011;65788;52.284;20.890;2023-03-11T15:45:41;5.00;;;2.70;;
76826;SDS011;65788;52.284;20.890;2023-03-11T15:48:11;4.90;;;3.30;;
76826;SDS011;65788;52.284;20.890;2023-03-11T15:50:45;6.30;;;2.70;;
76826;SDS011;65788;52.284;20.890;2023-03-11T15:53:16;5.00;;;2.50;;
76826;SDS011;65788;52.284;20.890;2023-03-11T15:55:43;3.90;;;2.30;;
76826;SDS011;65788;52.284;20.890;2023-03-11T15:58:11;5.10;;;3.00;;
76826;SDS011;65788;52.284;20.890;2023-03-11T16:00:46;4.10;;;2.80;;
76826;SDS011;65788;52.284;20.890;2023-03-11T16:03:19;4.60;;;2.60;;
76826;SDS011;65788;52.284;20.890;2023-03-11T16:05:46;6.20;;;3.00;;
76826;SDS011;65788;52.284;20.890;2023-03-11T16:08:13;6.10;;;3.10;;
76826;SDS011;65788;52.284;20.890;2023-03-11T16:10:40;5.20;;;2.80;;
76826;SDS011;65788;52.284;20.890;2023-03-11T16:13:11;11.00;;;3.60;;
76826;SDS011;65788;52.284;20.890;2023-03-11T16:15:39;7.00;;;3.10;;
76826;SDS011;65788;52.284;20.890;2023-03-11T16:18:08;7.40;;;3.60;;
76826;SDS011;65788;52.284;20.890;2023-03-11T16:20:43;4.90;;;3.20;;
76826;SDS011;65788;52.284;20.890;2023-03-11T16:23:20;5.90;;;3.20;;
76826;SDS011;65788;52.284;20.890;2023-03-11T16:25:51;6.00;;;2.90;;
76826;SDS011;65788;52.284;20.890;2023-03-11T16:28:22;7.60;;;3.60;;
76826;SDS011;65788;52.284;20.890;2023-03-11T16:30:49;4.80;;;3.00;;
76826;SDS011;65788;52.284;20.890;2023-03-11T16:33:17;4.40;;;2.60;;
76826;SDS011;65788;52.284;20.890;2023-03-11T16:35:44;5.60;;;2.80;;
76826;SDS011;65788;52.284;20.890;2023-03-11T16:38:12;5.30;;;2.60;;
76826;SDS011;65788;52.284;20.890;2023-03-11T16:40:39;7.30;;;2.50;;
76826;SDS011;65788;52.284;20.890;2023-03-11T16:43:07;6.40;;;2.80;;
76826;SDS011;65788;52.284;20.890;2023-03-11T16:45:35;6.30;;;2.90;;
76826;SDS011;65788;52.284;20.890;2023-03-11T16:48:03;5.10;;;2.60;;
76826;SDS011;65788;52.284;20.890;2023-03-11T16:50:32;5.90;;;2.50;;
76826;SDS011;65788;52.284;20.890;2023-03-11T16:53:01;4.20;;;2.60;;
76826;SDS011;65788;52.284;20.890;2023-03-11T16:55:28;5.70;;;2.70;;
76826;SDS011;65788;52.284;20.890;2023-03-11T16:57:56;6.10;;;2.60;;
76826;SDS011;65788;52.284;20.890;2023-03-11T17:00:23;5.40;;;2.30;;
76826;SDS011;65788;52.284;20.890;2023-03-11T17:02:53;5.40;;;2.90;;
76826;SDS011;65788;52.284;20.890;2023-03-11T17:05:21;4.70;;;2.50;;
76826;SDS011;65788;52.284;20.890;2023-03-11T17:07:52;5.20;;;3.00;;